sensor_id;sensor_type;location;lat;lon;timestamp;P1;durP1;ratioP1;P2;durP2;ratioP2
76566;SDS011;65428;53.194;6.132;2024-01-16T00:01:08;6.93;;;0.50;;
76566;SDS011;65428;53.194;6.132;2024-01-16T00:03:33;5.85;;;0.40;;
76566;SDS011;65428;53.194;6.132;2024-01-16T00:06:00;7.03;;;0.60;;
76566;SDS011;65428;53.194;6.132;2024-01-16T00:08:26;6.30;;;0.65;;
76566;SDS011;65428;53.194;6.132;2024-01-16T00:10:52;6.38;;;0.50;;
76566;SDS011;65428;53.194;6.132;2024-01-16T00:13:17;5.87;;;0.30;;
76566;SDS011;65428;53.194;6.132;2024-01-16T00:15:43;6.60;;;0.40;;
76566;SDS011;65428;53.194;6.132;2024-01-16T00:18:09;8.27;;;0.50;;
76566;SDS011;65428;53.194;6.132;2024-01-16T00:20:35;7.13;;;0.30;;
76566;SDS011;65428;53.194;6.132;2024-01-16T00:23:00;8.23;;;0.33;;
76566;SDS011;65428;53.194;6.132;2024-01-16T00:25:26;6.73;;;0.33;;
76566;SDS011;65428;53.194;6.132;2024-01-16T00:27:51;7.53;;;0.30;;
76566;SDS011;65428;53.194;6.132;2024-01-16T00:30:17;4.03;;;0.30;;
76566;SDS011;65428;53.194;6.132;2024-01-16T00:32:43;4.88;;;0.32;;
76566;SDS011;65428;53.194;6.132;2024-01-16T00:35:09;8.98;;;0.45;;
76566;SDS011;65428;53.194;6.132;2024-01-16T00:37:36;6.88;;;0.65;;
76566;SDS011;65428;53.194;6.132;2024-01-16T00:40:02;7.10;;;0.40;;
76566;SDS011;65428;53.194;6.132;2024-01-16T00:42:34;8.35;;;1.00;;
76566;SDS011;65428;53.194;6.132;2024-01-16T00:44:59;6.32;;;0.50;;
76566;SDS011;65428;53.194;6.132;2024-01-16T00:47:25;7.25;;;0.50;;
76566;SDS011;65428;53.194;6.132;2024-01-16T00:49:51;8.27;;;0.80;;
76566;SDS011;65428;53.194;6.132;2024-01-16T00:52:16;7.80;;;0.40;;
76566;SDS011;65428;53.194;6.132;2024-01-16T00:54:42;8.85;;;0.68;;
76566;SDS011;65428;53.194;6.132;2024-01-16T00:57:08;10.07;;;0.90;;
76566;SDS011;65428;53.194;6.132;2024-01-16T00:59:34;12.45;;;1.30;;
76566;SDS011;65428;53.194;6.132;2024-01-16T01:01:59;10.15;;;0.70;;
76566;SDS011;65428;53.194;6.132;2024-01-16T01:04:25;6.32;;;0.70;;
76566;SDS011;65428;53.194;6.132;2024-01-16T01:06:51;9.70;;;0.63;;
76566;SDS011;65428;53.194;6.132;2024-01-16T01:09:16;8.97;;;0.70;;
76566;SDS011;65428;53.194;6.132;2024-01-16T01:11:42;8.15;;;0.60;;
76566;SDS011;65428;53.194;6.132;2024-01-16T01:14:08;7.88;;;0.68;;
76566;SDS011;65428;53.194;6.132;2024-01-16T01:16:34;9.00;;;0.73;;
76566;SDS011;65428;53.194;6.132;2024-01-16T01:18:59;8.33;;;0.73;;
76566;SDS011;65428;53.194;6.132;2024-01-16T01:21:25;7.23;;;0.60;;
76566;SDS011;65428;53.194;6.132;2024-01-16T01:23:51;8.77;;;0.50;;
76566;SDS011;65428;53.194;6.132;2024-01-16T01:26:16;7.90;;;0.50;;
76566;SDS011;65428;53.194;6.132;2024-01-16T01:28:45;6.43;;;0.63;;
76566;SDS011;65428;53.194;6.132;2024-01-16T01:31:11;11.50;;;0.77;;
76566;SDS011;65428;53.194;6.132;2024-01-16T01:33:39;8.10;;;0.32;;
76566;SDS011;65428;53.194;6.132;2024-01-16T01:36:05;6.97;;;1.02;;
76566;SDS011;65428;53.194;6.132;2024-01-16T01:38:30;5.90;;;0.60;;
76566;SDS011;65428;53.194;6.132;2024-01-16T01:40:56;4.95;;;0.30;;
76566;SDS011;65428;53.194;6.132;2024-01-16T01:43:23;7.57;;;0.55;;
76566;SDS011;65428;53.194;6.132;2024-01-16T01:45:58;8.30;;;0.57;;
76566;SDS011;65428;53.194;6.132;2024-01-16T01:48:41;6.57;;;0.57;;
76566;SDS011;65428;53.194;6.132;2024-01-16T01:51:11;8.48;;;0.55;;
76566;SDS011;65428;53.194;6.132;2024-01-16T01:53:38;4.45;;;0.20;;
76566;SDS011;65428;53.194;6.132;2024-01-16T01:56:07;5.40;;;0.30;;
76566;SDS011;65428;53.194;6.132;2024-01-16T01:58:36;5.20;;;0.65;;
76566;SDS011;65428;53.194;6.132;2024-01-16T02:01:05;5.90;;;0.47;;
76566;SDS011;65428;53.194;6.132;2024-01-16T02:03:32;5.13;;;0.43;;
76566;SDS011;65428;53.194;6.132;2024-01-16T02:06:04;6.82;;;0.30;;
76566;SDS011;65428;53.194;6.132;2024-01-16T02:08:30;5.68;;;0.50;;
76566;SDS011;65428;53.194;6.132;2024-01-16T02:10:57;6.70;;;0.60;;
76566;SDS011;65428;53.194;6.132;2024-01-16T02:13:22;6.57;;;0.95;;
76566;SDS011;65428;53.194;6.132;2024-01-16T02:15:48;7.43;;;1.23;;
76566;SDS011;65428;53.194;6.132;2024-01-16T02:18:17;5.95;;;0.90;;
76566;SDS011;65428;53.194;6.132;2024-01-16T02:20:43;5.55;;;0.60;;
76566;SDS011;65428;53.194;6.132;2024-01-16T02:23:10;7.22;;;0.55;;
76566;SDS011;65428;53.194;6.132;2024-01-16T02:25:39;6.82;;;0.80;;
76566;SDS011;65428;53.194;6.132;2024-01-16T02:28:08;7.90;;;0.90;;
76566;SDS011;65428;53.194;6.132;2024-01-16T02:30:34;5.53;;;0.90;;
76566;SDS011;65428;53.194;6.132;2024-01-16T02:33:00;9.10;;;0.90;;
76566;SDS011;65428;53.194;6.132;2024-01-16T02:35:25;9.27;;;1.20;;
76566;SDS011;65428;53.194;6.132;2024-01-16T02:37:51;10.82;;;1.35;;
76566;SDS011;65428;53.194;6.132;2024-01-16T02:40:17;8.32;;;1.00;;
76566;SDS011;65428;53.194;6.132;2024-01-16T02:42:42;7.17;;;0.90;;
76566;SDS011;65428;53.194;6.132;2024-01-16T02:45:08;7.03;;;1.20;;
76566;SDS011;65428;53.194;6.132;2024-01-16T02:47:34;8.77;;;0.80;;
76566;SDS011;65428;53.194;6.132;2024-01-16T02:50:00;8.15;;;0.95;;
76566;SDS011;65428;53.194;6.132;2024-01-16T02:52:27;6.65;;;0.55;;
76566;SDS011;65428;53.194;6.132;2024-01-16T02:54:53;9.70;;;0.98;;
76566;SDS011;65428;53.194;6.132;2024-01-16T02:57:19;6.78;;;0.50;;
76566;SDS011;65428;53.194;6.132;2024-01-16T02:59:45;8.85;;;0.40;;
76566;SDS011;65428;53.194;6.132;2024-01-16T03:02:11;8.53;;;0.40;;
76566;SDS011;65428;53.194;6.132;2024-01-16T03:04:38;9.00;;;0.50;;
76566;SDS011;65428;53.194;6.132;2024-01-16T03:07:04;7.38;;;0.32;;
76566;SDS011;65428;53.194;6.132;2024-01-16T03:09:30;7.72;;;0.40;;
76566;SDS011;65428;53.194;6.132;2024-01-16T03:11:56;12.23;;;0.77;;
76566;SDS011;65428;53.194;6.132;2024-01-16T03:14:23;6.40;;;0.45;;
76566;SDS011;65428;53.194;6.132;2024-01-16T03:16:48;8.05;;;0.73;;
76566;SDS011;65428;53.194;6.132;2024-01-16T03:19:14;4.77;;;0.37;;
76566;SDS011;65428;53.194;6.132;2024-01-16T03:21:40;6.17;;;0.73;;
76566;SDS011;65428;53.194;6.132;2024-01-16T03:24:06;9.25;;;0.40;;
76566;SDS011;65428;53.194;6.132;2024-01-16T03:26:32;9.07;;;0.50;;
76566;SDS011;65428;53.194;6.132;2024-01-16T03:28:58;6.68;;;0.40;;
76566;SDS011;65428;53.194;6.132;2024-01-16T03:31:24;6.85;;;0.57;;
76566;SDS011;65428;53.194;6.132;2024-01-16T03:33:50;8.27;;;0.40;;
76566;SDS011;65428;53.194;6.132;2024-01-16T03:36:15;7.93;;;0.50;;
76566;SDS011;65428;53.194;6.132;2024-01-16T03:38:44;7.13;;;0.47;;
76566;SDS011;65428;53.194;6.132;2024-01-16T03:41:10;7.15;;;0.38;;
76566;SDS011;65428;53.194;6.132;2024-01-16T03:43:37;9.23;;;0.30;;
76566;SDS011;65428;53.194;6.132;2024-01-16T03:46:02;9.13;;;0.67;;
76566;SDS011;65428;53.194;6.132;2024-01-16T03:48:28;9.33;;;0.37;;
76566;SDS011;65428;53.194;6.132;2024-01-16T03:50:55;5.97;;;0.40;;
76566;SDS011;65428;53.194;6.132;2024-01-16T03:53:21;8.65;;;0.57;;
76566;SDS011;65428;53.194;6.132;2024-01-16T03:55:47;10.38;;;0.68;;
76566;SDS011;65428;53.194;6.132;2024-01-16T03:58:15;9.55;;;0.60;;
76566;SDS011;65428;53.194;6.132;2024-01-16T04:00:40;9.07;;;0.70;;
76566;SDS011;65428;53.194;6.132;2024-01-16T04:03:06;10.07;;;0.60;;
76566;SDS011;65428;53.194;6.132;2024-01-16T04:05:32;7.63;;;0.50;;
76566;SDS011;65428;53.194;6.132;2024-01-16T04:07:58;9.33;;;0.60;;
76566;SDS011;65428;53.194;6.132;2024-01-16T04:10:24;9.63;;;0.60;;
76566;SDS011;65428;53.194;6.132;2024-01-16T04:12:49;9.95;;;0.50;;
76566;SDS011;65428;53.194;6.132;2024-01-16T04:15:15;9.90;;;0.45;;
76566;SDS011;65428;53.194;6.132;2024-01-16T04:17:41;9.77;;;0.70;;
76566;SDS011;65428;53.194;6.132;2024-01-16T04:20:07;6.93;;;0.57;;
76566;SDS011;65428;53.194;6.132;2024-01-16T04:22:34;7.50;;;0.47;;
76566;SDS011;65428;53.194;6.132;2024-01-16T04:25:00;6.90;;;0.47;;
76566;SDS011;65428;53.194;6.132;2024-01-16T04:27:25;9.10;;;0.55;;
76566;SDS011;65428;53.194;6.132;2024-01-16T04:29:51;11.75;;;0.65;;
76566;SDS011;65428;53.194;6.132;2024-01-16T04:32:17;8.80;;;0.80;;
76566;SDS011;65428;53.194;6.132;2024-01-16T04:34:43;8.23;;;0.80;;
76566;SDS011;65428;53.194;6.132;2024-01-16T04:37:08;11.27;;;0.93;;
76566;SDS011;65428;53.194;6.132;2024-01-16T04:39:34;7.80;;;1.10;;
76566;SDS011;65428;53.194;6.132;2024-01-16T04:41:59;11.55;;;1.20;;
76566;SDS011;65428;53.194;6.132;2024-01-16T04:44:25;10.65;;;0.98;;
76566;SDS011;65428;53.194;6.132;2024-01-16T04:46:51;9.05;;;0.80;;
76566;SDS011;65428;53.194;6.132;2024-01-16T04:49:17;8.27;;;1.03;;
76566;SDS011;65428;53.194;6.132;2024-01-16T04:51:43;7.83;;;0.60;;
76566;SDS011;65428;53.194;6.132;2024-01-16T04:54:08;8.85;;;0.63;;
76566;SDS011;65428;53.194;6.132;2024-01-16T04:56:36;5.80;;;0.70;;
76566;SDS011;65428;53.194;6.132;2024-01-16T04:59:02;9.97;;;0.60;;
76566;SDS011;65428;53.194;6.132;2024-01-16T05:01:27;5.70;;;0.43;;
76566;SDS011;65428;53.194;6.132;2024-01-16T05:03:53;6.93;;;0.90;;
76566;SDS011;65428;53.194;6.132;2024-01-16T05:06:19;6.70;;;0.40;;
76566;SDS011;65428;53.194;6.132;2024-01-16T05:08:45;6.33;;;0.53;;
76566;SDS011;65428;53.194;6.132;2024-01-16T05:11:11;8.33;;;0.60;;
76566;SDS011;65428;53.194;6.132;2024-01-16T05:13:36;7.53;;;0.50;;
76566;SDS011;65428;53.194;6.132;2024-01-16T05:16:02;9.52;;;0.50;;
76566;SDS011;65428;53.194;6.132;2024-01-16T05:18:27;7.23;;;0.43;;
76566;SDS011;65428;53.194;6.132;2024-01-16T05:20:53;8.37;;;0.50;;
76566;SDS011;65428;53.194;6.132;2024-01-16T05:23:21;8.00;;;0.50;;
76566;SDS011;65428;53.194;6.132;2024-01-16T05:25:47;9.90;;;0.90;;
76566;SDS011;65428;53.194;6.132;2024-01-16T05:28:12;7.03;;;0.50;;
76566;SDS011;65428;53.194;6.132;2024-01-16T05:30:38;6.32;;;0.40;;
76566;SDS011;65428;53.194;6.132;2024-01-16T05:33:04;8.70;;;0.60;;
76566;SDS011;65428;53.194;6.132;2024-01-16T05:35:29;5.33;;;0.60;;
76566;SDS011;65428;53.194;6.132;2024-01-16T05:37:55;10.70;;;0.70;;
76566;SDS011;65428;53.194;6.132;2024-01-16T05:40:22;8.25;;;1.08;;
76566;SDS011;65428;53.194;6.132;2024-01-16T05:42:51;8.13;;;0.75;;
76566;SDS011;65428;53.194;6.132;2024-01-16T05:45:16;7.53;;;0.77;;
76566;SDS011;65428;53.194;6.132;2024-01-16T05:47:43;8.45;;;1.20;;
76566;SDS011;65428;53.194;6.132;2024-01-16T05:50:08;8.18;;;0.50;;
76566;SDS011;65428;53.194;6.132;2024-01-16T05:52:34;9.30;;;0.65;;
76566;SDS011;65428;53.194;6.132;2024-01-16T05:55:00;7.63;;;0.50;;
76566;SDS011;65428;53.194;6.132;2024-01-16T05:57:28;6.07;;;0.30;;
76566;SDS011;65428;53.194;6.132;2024-01-16T05:59:56;8.83;;;0.70;;
76566;SDS011;65428;53.194;6.132;2024-01-16T06:02:22;6.72;;;0.65;;
76566;SDS011;65428;53.194;6.132;2024-01-16T06:04:49;7.20;;;0.63;;
76566;SDS011;65428;53.194;6.132;2024-01-16T06:07:15;6.20;;;0.60;;
76566;SDS011;65428;53.194;6.132;2024-01-16T06:09:41;8.87;;;0.80;;
76566;SDS011;65428;53.194;6.132;2024-01-16T06:12:07;6.35;;;0.60;;
76566;SDS011;65428;53.194;6.132;2024-01-16T06:14:33;6.85;;;0.55;;
76566;SDS011;65428;53.194;6.132;2024-01-16T06:17:00;9.70;;;1.10;;
76566;SDS011;65428;53.194;6.132;2024-01-16T06:19:26;6.90;;;0.70;;
76566;SDS011;65428;53.194;6.132;2024-01-16T06:21:51;6.97;;;0.80;;
76566;SDS011;65428;53.194;6.132;2024-01-16T06:24:17;10.20;;;1.58;;
76566;SDS011;65428;53.194;6.132;2024-01-16T06:26:43;8.52;;;0.85;;
76566;SDS011;65428;53.194;6.132;2024-01-16T06:29:09;11.43;;;0.70;;
76566;SDS011;65428;53.194;6.132;2024-01-16T06:31:34;8.07;;;0.80;;
76566;SDS011;65428;53.194;6.132;2024-01-16T06:34:00;9.57;;;0.77;;
76566;SDS011;65428;53.194;6.132;2024-01-16T06:36:26;9.77;;;1.05;;
76566;SDS011;65428;53.194;6.132;2024-01-16T06:38:52;8.02;;;0.70;;
76566;SDS011;65428;53.194;6.132;2024-01-16T06:41:17;9.85;;;0.70;;
76566;SDS011;65428;53.194;6.132;2024-01-16T06:43:43;9.95;;;1.02;;
76566;SDS011;65428;53.194;6.132;2024-01-16T06:46:09;9.15;;;0.70;;
76566;SDS011;65428;53.194;6.132;2024-01-16T06:48:35;11.97;;;1.17;;
76566;SDS011;65428;53.194;6.132;2024-01-16T06:51:02;9.77;;;0.85;;
76566;SDS011;65428;53.194;6.132;2024-01-16T06:53:29;9.02;;;0.80;;
76566;SDS011;65428;53.194;6.132;2024-01-16T06:55:54;8.40;;;0.68;;
76566;SDS011;65428;53.194;6.132;2024-01-16T06:58:20;6.17;;;0.70;;
76566;SDS011;65428;53.194;6.132;2024-01-16T07:00:46;7.77;;;0.50;;
76566;SDS011;65428;53.194;6.132;2024-01-16T07:03:12;9.60;;;0.80;;
76566;SDS011;65428;53.194;6.132;2024-01-16T07:05:38;8.63;;;0.75;;
76566;SDS011;65428;53.194;6.132;2024-01-16T07:08:06;12.00;;;1.35;;
76566;SDS011;65428;53.194;6.132;2024-01-16T07:10:33;9.20;;;0.77;;
76566;SDS011;65428;53.194;6.132;2024-01-16T07:12:59;9.57;;;0.95;;
76566;SDS011;65428;53.194;6.132;2024-01-16T07:15:25;9.95;;;0.60;;
76566;SDS011;65428;53.194;6.132;2024-01-16T07:17:51;7.70;;;0.50;;
76566;SDS011;65428;53.194;6.132;2024-01-16T07:20:16;7.43;;;0.70;;
76566;SDS011;65428;53.194;6.132;2024-01-16T07:22:42;9.80;;;0.80;;
76566;SDS011;65428;53.194;6.132;2024-01-16T07:25:08;6.72;;;0.40;;
76566;SDS011;65428;53.194;6.132;2024-01-16T07:27:34;7.53;;;0.50;;
76566;SDS011;65428;53.194;6.132;2024-01-16T07:30:00;7.73;;;1.00;;
76566;SDS011;65428;53.194;6.132;2024-01-16T07:32:26;7.30;;;0.88;;
76566;SDS011;65428;53.194;6.132;2024-01-16T07:34:52;7.28;;;0.52;;
76566;SDS011;65428;53.194;6.132;2024-01-16T07:37:18;7.95;;;0.60;;
76566;SDS011;65428;53.194;6.132;2024-01-16T07:39:44;9.50;;;0.90;;
76566;SDS011;65428;53.194;6.132;2024-01-16T07:42:10;8.13;;;0.55;;
76566;SDS011;65428;53.194;6.132;2024-01-16T07:44:36;7.93;;;0.57;;
76566;SDS011;65428;53.194;6.132;2024-01-16T07:47:01;8.52;;;0.80;;
76566;SDS011;65428;53.194;6.132;2024-01-16T07:49:28;9.77;;;0.88;;
76566;SDS011;65428;53.194;6.132;2024-01-16T07:51:54;7.85;;;0.70;;
76566;SDS011;65428;53.194;6.132;2024-01-16T07:54:20;8.07;;;0.70;;
76566;SDS011;65428;53.194;6.132;2024-01-16T07:56:45;6.57;;;0.67;;
76566;SDS011;65428;53.194;6.132;2024-01-16T07:59:11;10.47;;;0.67;;
76566;SDS011;65428;53.194;6.132;2024-01-16T08:01:37;6.93;;;0.77;;
76566;SDS011;65428;53.194;6.132;2024-01-16T08:04:02;8.57;;;0.60;;
76566;SDS011;65428;53.194;6.132;2024-01-16T08:06:28;7.82;;;0.60;;
76566;SDS011;65428;53.194;6.132;2024-01-16T08:08:55;11.17;;;1.10;;
76566;SDS011;65428;53.194;6.132;2024-01-16T08:11:20;9.40;;;0.40;;
76566;SDS011;65428;53.194;6.132;2024-01-16T08:13:46;10.20;;;1.00;;
76566;SDS011;65428;53.194;6.132;2024-01-16T08:16:12;10.67;;;0.50;;
76566;SDS011;65428;53.194;6.132;2024-01-16T08:18:38;10.27;;;0.40;;
76566;SDS011;65428;53.194;6.132;2024-01-16T08:21:03;8.73;;;0.73;;
76566;SDS011;65428;53.194;6.132;2024-01-16T08:23:29;11.90;;;1.33;;
76566;SDS011;65428;53.194;6.132;2024-01-16T08:25:55;10.30;;;0.95;;
76566;SDS011;65428;53.194;6.132;2024-01-16T08:28:20;8.35;;;0.50;;
76566;SDS011;65428;53.194;6.132;2024-01-16T08:30:49;13.20;;;0.70;;
76566;SDS011;65428;53.194;6.132;2024-01-16T08:33:14;12.13;;;1.77;;
76566;SDS011;65428;53.194;6.132;2024-01-16T08:35:40;13.73;;;1.80;;
76566;SDS011;65428;53.194;6.132;2024-01-16T08:38:06;8.33;;;1.10;;
76566;SDS011;65428;53.194;6.132;2024-01-16T08:40:31;10.60;;;0.77;;
76566;SDS011;65428;53.194;6.132;2024-01-16T08:42:57;9.77;;;0.60;;
76566;SDS011;65428;53.194;6.132;2024-01-16T08:45:23;6.57;;;0.65;;
76566;SDS011;65428;53.194;6.132;2024-01-16T08:47:51;9.43;;;0.60;;
76566;SDS011;65428;53.194;6.132;2024-01-16T08:50:16;10.10;;;0.60;;
76566;SDS011;65428;53.194;6.132;2024-01-16T08:52:42;8.17;;;0.50;;
76566;SDS011;65428;53.194;6.132;2024-01-16T08:55:08;7.97;;;0.40;;
76566;SDS011;65428;53.194;6.132;2024-01-16T08:57:36;6.50;;;0.40;;
76566;SDS011;65428;53.194;6.132;2024-01-16T09:00:03;7.78;;;0.50;;
76566;SDS011;65428;53.194;6.132;2024-01-16T09:02:34;7.82;;;0.50;;
76566;SDS011;65428;53.194;6.132;2024-01-16T09:05:00;9.05;;;0.50;;
76566;SDS011;65428;53.194;6.132;2024-01-16T09:07:26;9.05;;;0.45;;
76566;SDS011;65428;53.194;6.132;2024-01-16T09:09:52;7.97;;;0.55;;
76566;SDS011;65428;53.194;6.132;2024-01-16T09:12:18;5.72;;;0.30;;
76566;SDS011;65428;53.194;6.132;2024-01-16T09:14:44;6.72;;;0.40;;
76566;SDS011;65428;53.194;6.132;2024-01-16T09:17:10;6.17;;;0.30;;
76566;SDS011;65428;53.194;6.132;2024-01-16T09:19:36;7.17;;;0.50;;
76566;SDS011;65428;53.194;6.132;2024-01-16T09:22:01;8.17;;;0.20;;
76566;SDS011;65428;53.194;6.132;2024-01-16T09:24:28;5.47;;;0.40;;
76566;SDS011;65428;53.194;6.132;2024-01-16T09:26:54;4.45;;;0.22;;
76566;SDS011;65428;53.194;6.132;2024-01-16T09:29:19;6.85;;;0.30;;
76566;SDS011;65428;53.194;6.132;2024-01-16T09:31:46;4.32;;;0.20;;
76566;SDS011;65428;53.194;6.132;2024-01-16T09:34:12;5.00;;;0.20;;
76566;SDS011;65428;53.194;6.132;2024-01-16T09:36:39;4.10;;;0.15;;
76566;SDS011;65428;53.194;6.132;2024-01-16T09:39:05;4.05;;;0.20;;
76566;SDS011;65428;53.194;6.132;2024-01-16T09:41:36;4.73;;;0.30;;
76566;SDS011;65428;53.194;6.132;2024-01-16T09:44:01;3.87;;;0.27;;
76566;SDS011;65428;53.194;6.132;2024-01-16T09:46:27;3.40;;;0.20;;
76566;SDS011;65428;53.194;6.132;2024-01-16T09:48:55;5.07;;;0.20;;
76566;SDS011;65428;53.194;6.132;2024-01-16T09:51:22;3.63;;;0.30;;
76566;SDS011;65428;53.194;6.132;2024-01-16T09:53:48;4.65;;;0.40;;
76566;SDS011;65428;53.194;6.132;2024-01-16T09:56:14;4.10;;;0.30;;
76566;SDS011;65428;53.194;6.132;2024-01-16T09:58:41;3.25;;;0.30;;
76566;SDS011;65428;53.194;6.132;2024-01-16T10:01:08;3.80;;;0.40;;
76566;SDS011;65428;53.194;6.132;2024-01-16T10:03:36;4.10;;;0.20;;
76566;SDS011;65428;53.194;6.132;2024-01-16T10:06:03;3.00;;;0.30;;
76566;SDS011;65428;53.194;6.132;2024-01-16T10:08:31;4.40;;;0.38;;
76566;SDS011;65428;53.194;6.132;2024-01-16T10:10:57;4.97;;;0.40;;
76566;SDS011;65428;53.194;6.132;2024-01-16T10:13:23;4.22;;;0.30;;
76566;SDS011;65428;53.194;6.132;2024-01-16T10:15:49;4.15;;;0.40;;
76566;SDS011;65428;53.194;6.132;2024-01-16T10:18:27;5.70;;;0.52;;
76566;SDS011;65428;53.194;6.132;2024-01-16T10:20:55;6.30;;;0.40;;
76566;SDS011;65428;53.194;6.132;2024-01-16T10:23:22;5.93;;;0.70;;
76566;SDS011;65428;53.194;6.132;2024-01-16T10:28:39;6.80;;;0.80;;
76566;SDS011;65428;53.194;6.132;2024-01-16T10:31:14;5.03;;;0.90;;
76566;SDS011;65428;53.194;6.132;2024-01-16T10:33:40;3.97;;;1.30;;
76566;SDS011;65428;53.194;6.132;2024-01-16T10:36:10;7.20;;;1.30;;
76566;SDS011;65428;53.194;6.132;2024-01-16T10:38:44;7.70;;;1.40;;
76566;SDS011;65428;53.194;6.132;2024-01-16T10:41:11;7.00;;;1.50;;
76566;SDS011;65428;53.194;6.132;2024-01-16T10:43:38;6.80;;;1.45;;
76566;SDS011;65428;53.194;6.132;2024-01-16T10:48:37;6.43;;;1.80;;
76566;SDS011;65428;53.194;6.132;2024-01-16T10:51:05;4.43;;;1.30;;
76566;SDS011;65428;53.194;6.132;2024-01-16T10:53:33;4.00;;;1.42;;
76566;SDS011;65428;53.194;6.132;2024-01-16T10:56:00;3.53;;;1.38;;
76566;SDS011;65428;53.194;6.132;2024-01-16T10:58:27;3.07;;;1.80;;
76566;SDS011;65428;53.194;6.132;2024-01-16T11:01:01;4.72;;;1.73;;
76566;SDS011;65428;53.194;6.132;2024-01-16T11:03:34;5.20;;;1.67;;
76566;SDS011;65428;53.194;6.132;2024-01-16T11:06:05;6.30;;;2.10;;
76566;SDS011;65428;53.194;6.132;2024-01-16T11:08:33;4.17;;;1.43;;
76566;SDS011;65428;53.194;6.132;2024-01-16T11:11:03;4.90;;;1.77;;
76566;SDS011;65428;53.194;6.132;2024-01-16T11:13:33;6.03;;;1.77;;
76566;SDS011;65428;53.194;6.132;2024-01-16T11:15:59;4.53;;;2.30;;
76566;SDS011;65428;53.194;6.132;2024-01-16T11:18:27;6.35;;;1.83;;
76566;SDS011;65428;53.194;6.132;2024-01-16T11:20:55;6.35;;;1.85;;
76566;SDS011;65428;53.194;6.132;2024-01-16T11:23:21;6.18;;;1.48;;
76566;SDS011;65428;53.194;6.132;2024-01-16T11:25:47;6.57;;;1.80;;
76566;SDS011;65428;53.194;6.132;2024-01-16T11:28:13;5.77;;;1.97;;
76566;SDS011;65428;53.194;6.132;2024-01-16T11:30:39;8.50;;;2.10;;
76566;SDS011;65428;53.194;6.132;2024-01-16T11:33:06;8.80;;;1.33;;
76566;SDS011;65428;53.194;6.132;2024-01-16T11:35:32;7.27;;;1.20;;
76566;SDS011;65428;53.194;6.132;2024-01-16T11:38:08;7.82;;;1.35;;
76566;SDS011;65428;53.194;6.132;2024-01-16T11:40:40;6.32;;;1.08;;
76566;SDS011;65428;53.194;6.132;2024-01-16T11:46:06;7.95;;;0.98;;
76566;SDS011;65428;53.194;6.132;2024-01-16T11:48:33;11.57;;;1.17;;
76566;SDS011;65428;53.194;6.132;2024-01-16T11:50:59;6.80;;;0.90;;
76566;SDS011;65428;53.194;6.132;2024-01-16T12:01:33;7.05;;;1.25;;
76566;SDS011;65428;53.194;6.132;2024-01-16T12:04:01;4.97;;;0.70;;
76566;SDS011;65428;53.194;6.132;2024-01-16T12:06:31;6.82;;;1.00;;
76566;SDS011;65428;53.194;6.132;2024-01-16T12:09:16;8.18;;;0.70;;
76566;SDS011;65428;53.194;6.132;2024-01-16T12:11:43;6.40;;;0.80;;
76566;SDS011;65428;53.194;6.132;2024-01-16T12:14:20;4.72;;;0.52;;
76566;SDS011;65428;53.194;6.132;2024-01-16T12:16:45;4.47;;;0.68;;
76566;SDS011;65428;53.194;6.132;2024-01-16T12:19:11;6.07;;;0.63;;
76566;SDS011;65428;53.194;6.132;2024-01-16T12:21:42;5.72;;;0.70;;
76566;SDS011;65428;53.194;6.132;2024-01-16T12:24:09;5.47;;;1.10;;
76566;SDS011;65428;53.194;6.132;2024-01-16T12:26:36;6.53;;;1.30;;
76566;SDS011;65428;53.194;6.132;2024-01-16T12:29:02;6.32;;;1.13;;
76566;SDS011;65428;53.194;6.132;2024-01-16T12:31:28;4.70;;;1.20;;
76566;SDS011;65428;53.194;6.132;2024-01-16T12:34:07;5.93;;;1.90;;
76566;SDS011;65428;53.194;6.132;2024-01-16T12:36:36;7.75;;;1.98;;
76566;SDS011;65428;53.194;6.132;2024-01-16T12:39:03;8.45;;;2.20;;
76566;SDS011;65428;53.194;6.132;2024-01-16T12:41:32;7.28;;;1.77;;
76566;SDS011;65428;53.194;6.132;2024-01-16T12:44:02;7.82;;;2.03;;
76566;SDS011;65428;53.194;6.132;2024-01-16T12:46:28;9.70;;;3.42;;
76566;SDS011;65428;53.194;6.132;2024-01-16T12:48:59;8.32;;;2.83;;
76566;SDS011;65428;53.194;6.132;2024-01-16T12:51:28;9.95;;;3.00;;
76566;SDS011;65428;53.194;6.132;2024-01-16T12:53:54;11.13;;;3.20;;
76566;SDS011;65428;53.194;6.132;2024-01-16T12:56:35;7.18;;;3.55;;
76566;SDS011;65428;53.194;6.132;2024-01-16T12:59:08;9.05;;;3.15;;
76566;SDS011;65428;53.194;6.132;2024-01-16T13:01:36;8.27;;;3.58;;
76566;SDS011;65428;53.194;6.132;2024-01-16T13:04:09;8.52;;;3.58;;
76566;SDS011;65428;53.194;6.132;2024-01-16T13:06:35;8.25;;;3.72;;
76566;SDS011;65428;53.194;6.132;2024-01-16T13:09:06;10.30;;;3.05;;
76566;SDS011;65428;53.194;6.132;2024-01-16T13:11:54;9.32;;;3.10;;
76566;SDS011;65428;53.194;6.132;2024-01-16T13:14:21;8.20;;;3.30;;
76566;SDS011;65428;53.194;6.132;2024-01-16T13:16:50;8.35;;;2.95;;
76566;SDS011;65428;53.194;6.132;2024-01-16T13:19:20;6.95;;;2.85;;
76566;SDS011;65428;53.194;6.132;2024-01-16T13:21:47;8.77;;;2.83;;
76566;SDS011;65428;53.194;6.132;2024-01-16T13:24:13;9.60;;;2.42;;
76566;SDS011;65428;53.194;6.132;2024-01-16T13:26:38;6.10;;;2.10;;
76566;SDS011;65428;53.194;6.132;2024-01-16T13:29:05;6.35;;;2.05;;
76566;SDS011;65428;53.194;6.132;2024-01-16T13:31:34;6.07;;;1.88;;
76566;SDS011;65428;53.194;6.132;2024-01-16T13:34:00;5.77;;;2.00;;
76566;SDS011;65428;53.194;6.132;2024-01-16T13:36:25;4.93;;;1.67;;
76566;SDS011;65428;53.194;6.132;2024-01-16T13:38:51;6.00;;;1.80;;
76566;SDS011;65428;53.194;6.132;2024-01-16T13:41:17;6.80;;;2.13;;
76566;SDS011;65428;53.194;6.132;2024-01-16T13:43:42;7.43;;;2.40;;
76566;SDS011;65428;53.194;6.132;2024-01-16T13:46:08;7.80;;;1.73;;
76566;SDS011;65428;53.194;6.132;2024-01-16T13:48:35;7.53;;;2.00;;
76566;SDS011;65428;53.194;6.132;2024-01-16T13:51:01;8.40;;;1.88;;
76566;SDS011;65428;53.194;6.132;2024-01-16T13:53:26;7.93;;;2.45;;
76566;SDS011;65428;53.194;6.132;2024-01-16T13:55:52;8.35;;;1.67;;
76566;SDS011;65428;53.194;6.132;2024-01-16T13:58:18;8.68;;;1.80;;
76566;SDS011;65428;53.194;6.132;2024-01-16T14:00:43;7.40;;;1.30;;
76566;SDS011;65428;53.194;6.132;2024-01-16T14:03:09;6.93;;;1.67;;
76566;SDS011;65428;53.194;6.132;2024-01-16T14:05:35;6.50;;;1.40;;
76566;SDS011;65428;53.194;6.132;2024-01-16T14:08:01;5.85;;;1.10;;
76566;SDS011;65428;53.194;6.132;2024-01-16T14:10:27;6.67;;;1.47;;
76566;SDS011;65428;53.194;6.132;2024-01-16T14:12:53;5.83;;;1.17;;
76566;SDS011;65428;53.194;6.132;2024-01-16T14:15:19;6.97;;;0.90;;
76566;SDS011;65428;53.194;6.132;2024-01-16T14:17:49;5.07;;;0.90;;
76566;SDS011;65428;53.194;6.132;2024-01-16T14:20:16;5.25;;;1.17;;
76566;SDS011;65428;53.194;6.132;2024-01-16T14:22:43;6.43;;;1.00;;
76566;SDS011;65428;53.194;6.132;2024-01-16T14:25:09;5.65;;;0.90;;
76566;SDS011;65428;53.194;6.132;2024-01-16T14:27:37;5.80;;;0.60;;
76566;SDS011;65428;53.194;6.132;2024-01-16T14:30:04;5.60;;;0.80;;
76566;SDS011;65428;53.194;6.132;2024-01-16T14:32:35;4.45;;;0.70;;
76566;SDS011;65428;53.194;6.132;2024-01-16T14:35:05;7.05;;;0.60;;
76566;SDS011;65428;53.194;6.132;2024-01-16T14:37:33;5.15;;;0.68;;
76566;SDS011;65428;53.194;6.132;2024-01-16T14:39:59;6.07;;;0.50;;
76566;SDS011;65428;53.194;6.132;2024-01-16T14:42:28;5.95;;;0.40;;
76566;SDS011;65428;53.194;6.132;2024-01-16T14:44:54;5.83;;;0.40;;
76566;SDS011;65428;53.194;6.132;2024-01-16T14:47:20;4.27;;;0.33;;
76566;SDS011;65428;53.194;6.132;2024-01-16T14:49:46;7.47;;;0.60;;
76566;SDS011;65428;53.194;6.132;2024-01-16T14:52:11;5.25;;;0.80;;
76566;SDS011;65428;53.194;6.132;2024-01-16T14:54:37;4.28;;;0.70;;
76566;SDS011;65428;53.194;6.132;2024-01-16T14:57:04;5.47;;;0.70;;
76566;SDS011;65428;53.194;6.132;2024-01-16T14:59:32;5.88;;;0.70;;